Terminal Aerodrome Forecast
Issued by NWS

Home | Current Version | Previous Version | Text Only | Print | Product List | Glossary Off
Versions: 1 2 3 4 5 6 7 8 9 10 11 12 13 14

475
FTUS43 KMPX 182330
TAFRNH
TAF
KRNH 182330Z 1900/1924 32014G20KT P6SM SKC
     FM190200 31009G15KT P6SM SKC
     FM191000 28007KT P6SM SCT250
     FM191800 23007KT P6SM SKC=

USA.gov is the U.S. government's official web portal to all federal, state and local government web resources and services.